Time;durP1;ratioP1;P1;durP2;ratioP2;P2;SDS_P1;SDS_P2;PMS_P1;PMS_P2;Temp;Humidity;BMP_temperature;BMP_pressure;BME280_temperature;BME280_humidity;BME280_pressure;Samples;Min_cycle;Max_cycle;Signal;HPM_P1;HPM_P2
2022/10/26 00:01:07;;;;;;;29.10;27.45;;;;;;;15.21;63.28;101239.97;4977090;28;20394;-73
2022/10/26 00:03:33;;;;;;;28.52;26.92;;;;;;;15.19;63.51;101231.25;4977350;28;20045;-73
2022/10/26 00:06:07;;;;;;;28.42;26.33;;;;;;;15.19;63.66;101233.97;4977517;28;20046;-73
2022/10/26 00:08:33;;;;;;;28.92;27.20;;;;;;;15.18;63.40;101229.63;4977823;28;20076;-73
2022/10/26 00:10:58;;;;;;;29.58;27.35;;;;;;;15.17;63.69;101230.69;4976834;28;20035;-73
2022/10/26 00:13:24;;;;;;;28.27;26.67;;;;;;;15.17;63.47;101227.97;4977091;28;20069;-73
2022/10/26 00:15:49;;;;;;;29.98;27.98;;;;;;;15.14;63.29;101222.00;4977056;28;20387;-74
2022/10/26 00:18:15;;;;;;;28.90;27.10;;;;;;;15.14;63.45;101219.28;4977262;28;20039;-71
2022/10/26 00:20:41;;;;;;;29.65;27.75;;;;;;;15.14;63.36;101216.56;4976709;28;20045;-72
2022/10/26 00:23:07;;;;;;;28.90;27.10;;;;;;;15.12;63.59;101221.44;4975701;28;20038;-80
2022/10/26 00:25:32;;;;;;;28.20;26.55;;;;;;;15.12;63.53;101215.16;4977162;28;20034;-72
2022/10/26 00:27:57;;;;;;;28.63;27.00;;;;;;;15.12;63.64;101212.44;4976578;28;20502;-73
2022/10/26 00:30:23;;;;;;;30.63;28.58;;;;;;;15.10;63.69;101209.97;4976347;28;20034;-73
2022/10/26 00:32:48;;;;;;;29.70;27.73;;;;;;;15.09;63.65;101216.50;4976781;28;20039;-72
2022/10/26 00:35:14;;;;;;;29.15;26.98;;;;;;;15.09;63.66;101212.94;4976698;28;20383;-73
2022/10/26 00:37:39;;;;;;;28.00;25.88;;;;;;;15.09;63.29;101210.22;4976771;28;20034;-72
2022/10/26 00:40:05;;;;;;;27.40;25.75;;;;;;;15.08;63.47;101203.97;4976689;28;20089;-71
2022/10/26 00:42:30;;;;;;;28.77;26.98;;;;;;;15.08;63.46;101192.28;4976509;28;20387;-72
2022/10/26 00:45:00;;;;;;;29.25;27.42;;;;;;;15.07;63.46;101194.19;4976833;28;20027;-71
2022/10/26 00:47:40;;;;;;;31.92;29.58;;;;;;;15.06;63.48;101191.72;4976251;28;20031;-72
2022/10/26 00:50:10;;;;;;;27.50;26.00;;;;;;;15.05;63.49;101192.81;4976805;28;20057;-72
2022/10/26 00:52:36;;;;;;;27.70;26.05;;;;;;;15.03;63.36;101190.34;4976755;28;20051;-72
2022/10/26 00:55:03;;;;;;;29.35;27.30;;;;;;;15.04;63.50;101199.31;4976685;28;20034;-73
2022/10/26 00:57:29;;;;;;;29.65;27.83;;;;;;;15.03;63.86;101201.22;4976776;28;20031;-72
2022/10/26 00:59:56;;;;;;;28.75;26.63;;;;;;;15.01;63.59;101192.50;4976177;28;20041;-72
2022/10/26 01:02:21;;;;;;;27.95;26.33;;;;;;;15.02;63.75;101201.47;4976209;28;20034;-73
2022/10/26 01:04:47;;;;;;;27.40;25.70;;;;;;;15.01;63.36;101199.84;4976236;28;20057;-72
2022/10/26 01:07:12;;;;;;;27.70;25.92;;;;;;;15.00;63.50;101198.22;4976067;28;20047;-73
2022/10/26 01:09:38;;;;;;;27.25;25.63;;;;;;;15.00;63.68;101195.50;4958992;28;20035;-74
2022/10/26 01:12:04;;;;;;;28.23;26.30;;;;;;;14.98;63.74;101193.03;4976356;28;20035;-74
2022/10/26 01:14:30;;;;;;;27.00;25.40;;;;;;;14.98;63.72;101201.19;4975671;28;20038;-73
2022/10/26 01:17:35;;;;;;;27.35;25.63;;;;;;;14.97;63.49;101188.66;4976036;28;20027;-72
2022/10/26 01:20:27;;;;;;;27.73;26.02;;;;;;;14.97;63.88;101176.94;4976248;28;20093;-71
2022/10/26 01:23:05;;;;;;;27.80;26.13;;;;;;;14.96;63.77;101178.84;4976238;28;20038;-73
2022/10/26 01:26:04;;;;;;;27.58;25.98;;;;;;;14.95;63.83;101177.22;4975499;28;20427;-72
2022/10/26 01:28:59;;;;;;;28.48;26.73;;;;;;;14.93;63.52;101177.47;4976306;28;20026;-72
2022/10/26 01:31:33;;;;;;;28.40;26.60;;;;;;;14.91;63.70;101170.66;4962535;28;20054;-72
2022/10/26 01:34:11;;;;;;;27.98;26.38;;;;;;;14.91;63.45;101173.38;4975937;28;20031;-72
2022/10/26 01:36:53;;;;;;;26.75;25.08;;;;;;;14.91;63.79;101176.91;4976154;28;20031;-73
2022/10/26 01:39:52;;;;;;;29.27;27.42;;;;;;;14.90;63.70;101171.75;4975537;28;20039;-73
2022/10/26 01:42:20;;;;;;;27.85;26.08;;;;;;;14.89;63.50;101168.22;4964442;28;20117;-73
2022/10/26 01:44:52;;;;;;;26.08;24.48;;;;;;;14.89;63.66;101167.38;4975267;28;20391;-72
2022/10/26 01:47:20;;;;;;;28.73;26.98;;;;;;;14.88;63.71;101163.84;4974687;28;20466;-72
2022/10/26 01:49:54;;;;;;;27.25;25.52;;;;;;;14.88;64.11;101157.59;4975441;28;20113;-72
2022/10/26 01:52:20;;;;;;;29.48;26.70;;;;;;;14.87;63.74;101155.97;4975635;28;20034;-78
2022/10/26 01:54:46;;;;;;;26.63;25.23;;;;;;;14.87;64.08;101153.25;4975379;28;20037;-73
2022/10/26 01:57:14;;;;;;;28.23;26.27;;;;;;;14.86;64.17;101154.31;4975801;28;20109;-74
2022/10/26 01:59:58;;;;;;;28.75;27.05;;;;;;;14.87;63.86;101148.63;4974603;28;20045;-74
2022/10/26 02:02:30;;;;;;;28.40;26.60;;;;;;;14.85;63.82;101148.06;4975470;28;20039;-72
2022/10/26 02:05:09;;;;;;;28.90;26.95;;;;;;;14.85;63.74;101145.34;4975407;28;20034;-74
2022/10/26 02:07:54;;;;;;;28.23;26.38;;;;;;;14.85;63.84;101150.78;4975142;28;20101;-72
2022/10/26 02:10:53;;;;;;;29.13;26.73;;;;;;;14.85;63.67;101149.97;4975276;28;20029;-72
2022/10/26 02:13:39;;;;;;;27.35;25.60;;;;;;;14.82;64.17;101136.88;4975230;28;20034;-74
2022/10/26 02:16:20;;;;;;;27.20;25.23;;;;;;;14.83;63.82;101146.66;4975322;28;20034;-73
2022/10/26 02:18:45;;;;;;;26.50;24.90;;;;;;;14.82;63.75;101136.88;4975535;28;20031;-72
2022/10/26 02:21:21;;;;;;;26.95;25.33;;;;;;;14.82;63.83;101140.41;4974920;28;20045;-74
2022/10/26 02:23:50;;;;;;;27.55;25.85;;;;;;;14.82;63.84;101132.25;4974428;28;20474;-74
2022/10/26 02:26:21;;;;;;;27.40;25.60;;;;;;;14.81;64.00;101127.88;4975405;28;20121;-77
2022/10/26 02:28:49;;;;;;;26.40;24.92;;;;;;;14.81;63.92;101127.88;4974914;28;20094;-71
2022/10/26 02:31:17;;;;;;;25.88;24.38;;;;;;;14.81;63.87;101125.16;4973490;28;20034;-73
2022/10/26 02:33:49;;;;;;;26.00;24.42;;;;;;;14.80;64.15;101126.25;4974801;28;20482;-72
2022/10/26 02:36:24;;;;;;;25.80;24.40;;;;;;;14.81;63.93;101124.34;4974824;28;20037;-72
2022/10/26 02:38:52;;;;;;;26.45;24.65;;;;;;;14.80;64.24;101126.25;4974827;28;20027;-73
2022/10/26 02:41:20;;;;;;;26.67;24.98;;;;;;;14.79;63.94;101124.63;4974712;28;20031;-75
2022/10/26 02:44:00;;;;;;;;;;;;;;;14.79;64.01;101126.50;4975128;28;20026;-73
2022/10/26 02:46:27;;;;;;;26.38;24.88;;;;;;;14.78;63.88;101124.88;4974095;28;20350;-72
2022/10/26 02:48:54;;;;;;;26.70;24.75;;;;;;;14.77;63.83;101121.34;4974402;28;20047;-72
2022/10/26 02:51:43;;;;;;;26.15;24.55;;;;;;;14.77;64.03;101117.81;4974727;28;20098;-76
2022/10/26 02:54:25;;;;;;;26.42;25.02;;;;;;;14.76;63.89;101119.69;4974942;28;20043;-73
2022/10/26 02:56:56;;;;;;;28.20;26.08;;;;;;;14.76;63.97;101116.16;4974647;28;20042;-73
2022/10/26 02:59:24;;;;;;;27.27;25.20;;;;;;;14.76;64.26;101110.72;4975110;28;20030;-75
2022/10/26 03:01:50;;;;;;;27.90;26.15;;;;;;;14.76;63.93;101116.16;4974278;28;20061;-73
2022/10/26 03:04:16;;;;;;;27.45;25.52;;;;;;;14.75;64.21;101112.63;4974920;28;20039;-72
2022/10/26 03:06:41;;;;;;;27.38;25.75;;;;;;;14.75;63.90;101112.63;4973892;28;20074;-75
2022/10/26 03:09:06;;;;;;;25.73;24.33;;;;;;;14.76;64.24;101110.72;4974430;28;20038;-73
2022/10/26 03:11:32;;;;;;;27.48;25.77;;;;;;;14.75;64.03;101109.91;4976268;28;20038;-73
2022/10/26 03:13:57;;;;;;;26.48;25.08;;;;;;;14.75;64.28;101115.34;4978514;28;20035;-74
2022/10/26 03:16:22;;;;;;;26.80;25.15;;;;;;;14.75;64.33;101109.91;4977847;28;20074;-74
2022/10/26 03:18:48;;;;;;;27.60;25.65;;;;;;;14.75;64.23;101111.81;4978220;28;20109;-74
2022/10/26 03:21:13;;;;;;;28.35;26.30;;;;;;;14.74;64.05;101096.56;4978051;28;20541;-70
2022/10/26 03:23:39;;;;;;;27.55;25.65;;;;;;;14.73;63.93;101095.75;4977999;28;20360;-76
2022/10/26 03:26:04;;;;;;;26.95;25.23;;;;;;;14.74;64.07;101099.28;4978108;28;20125;-72
2022/10/26 03:28:29;;;;;;;28.95;27.05;;;;;;;14.73;64.00;101097.66;4977415;28;20122;-72
2022/10/26 03:30:55;;;;;;;26.10;24.60;;;;;;;14.73;64.12;101106.63;4978135;28;20446;-70
2022/10/26 03:33:20;;;;;;;26.17;24.38;;;;;;;14.73;64.14;101111.25;4977818;28;20030;-74
2022/10/26 03:35:45;;;;;;;27.85;26.25;;;;;;;14.71;64.06;101104.16;4977675;28;20123;-72
2022/10/26 03:38:11;;;;;;;25.90;24.48;;;;;;;14.71;64.01;101097.91;4977922;28;20482;-74
2022/10/26 03:40:36;;;;;;;27.63;26.02;;;;;;;14.70;64.40;101102.53;4977589;28;20033;-73
2022/10/26 03:43:02;;;;;;;26.60;24.80;;;;;;;14.71;64.36;101103.34;4977690;28;20042;-75
2022/10/26 03:45:28;;;;;;;25.83;24.13;;;;;;;14.70;64.23;101102.53;4977813;28;20035;-73
2022/10/26 03:47:53;;;;;;;26.98;25.38;;;;;;;14.70;64.30;101107.97;4977586;28;20030;-72
2022/10/26 03:50:21;;;;;;;26.30;24.88;;;;;;;14.70;64.10;101105.25;4977945;28;20055;-75
2022/10/26 03:52:47;;;;;;;26.25;24.60;;;;;;;14.69;64.19;101111.78;4977736;28;20111;-73
2022/10/26 03:55:13;;;;;;;26.65;25.02;;;;;;;14.69;64.35;101109.06;4976523;28;20037;-72
2022/10/26 03:57:42;;;;;;;29.90;27.80;;;;;;;14.68;64.45;101104.69;4977395;28;20034;-71
2022/10/26 04:00:14;;;;;;;26.60;25.08;;;;;;;14.69;64.46;101113.66;4975930;28;20368;-71
2022/10/26 04:02:40;;;;;;;28.08;26.20;;;;;;;14.67;64.29;101108.50;4977611;28;20118;-73
2022/10/26 04:05:06;;;;;;;26.48;25.02;;;;;;;14.66;64.46;101106.84;4977939;28;20031;-76
2022/10/26 04:07:31;;;;;;;29.83;27.85;;;;;;;14.67;64.26;101103.06;4977165;28;20037;-74
2022/10/26 04:09:57;;;;;;;27.02;25.42;;;;;;;14.67;64.36;101103.06;4976492;28;20038;-73
2022/10/26 04:12:22;;;;;;;25.45;24.05;;;;;;;14.67;64.26;101096.81;4977292;28;20089;-74
2022/10/26 04:14:47;;;;;;;27.35;25.85;;;;;;;14.67;64.22;101102.25;4977395;28;20093;-75
2022/10/26 04:17:13;;;;;;;27.23;25.40;;;;;;;14.67;64.50;101100.34;4960314;28;20035;-75
2022/10/26 04:19:38;;;;;;;27.70;25.58;;;;;;;14.66;64.23;101098.69;4977201;28;20046;-71
2022/10/26 04:22:03;;;;;;;27.52;25.92;;;;;;;14.67;64.12;101094.09;4976906;28;20034;-71
2022/10/26 04:24:29;;;;;;;26.55;24.92;;;;;;;14.66;64.43;101093.25;4976305;28;20062;-72
2022/10/26 04:26:54;;;;;;;26.88;25.27;;;;;;;14.64;64.18;101086.44;4976908;28;20030;-71
2022/10/26 04:29:19;;;;;;;26.20;24.70;;;;;;;14.64;64.33;101092.72;4977340;28;20035;-71
2022/10/26 04:31:45;;;;;;;27.23;25.63;;;;;;;14.63;64.30;101082.91;4976765;28;20046;-71
2022/10/26 04:34:10;;;;;;;26.63;24.98;;;;;;;14.64;64.31;101090.00;4959454;28;20038;-72
2022/10/26 04:36:35;;;;;;;27.02;25.40;;;;;;;14.65;64.38;101096.25;4976630;28;20039;-76
2022/10/26 04:39:01;;;;;;;28.33;26.10;;;;;;;14.64;64.34;101089.16;4975474;28;20134;-75
2022/10/26 04:41:26;;;;;;;26.92;25.48;;;;;;;14.63;64.17;101096.50;4976673;28;20058;-72
2022/10/26 04:43:51;;;;;;;25.90;24.42;;;;;;;14.65;64.76;101094.34;4976598;28;20039;-74
2022/10/26 04:46:17;;;;;;;28.90;27.17;;;;;;;14.63;64.44;101096.50;4959180;28;20475;-74
2022/10/26 04:48:42;;;;;;;27.73;25.67;;;;;;;14.64;64.54;101094.59;4976295;28;20054;-73
2022/10/26 04:51:08;;;;;;;27.88;26.17;;;;;;;14.64;64.61;101097.31;4976990;28;20047;-72
2022/10/26 04:53:33;;;;;;;26.20;24.65;;;;;;;14.64;64.33;101100.03;4976084;28;20081;-75
2022/10/26 04:56:00;;;;;;;27.63;25.67;;;;;;;14.63;64.34;101099.22;4959359;28;20595;-74
2022/10/26 04:58:28;;;;;;;27.15;25.65;;;;;;;14.61;64.65;101093.22;4976043;28;20110;-74
2022/10/26 05:00:54;;;;;;;25.85;24.35;;;;;;;14.61;64.49;101093.22;4976410;28;20038;-73
2022/10/26 05:03:19;;;;;;;27.33;25.38;;;;;;;14.61;64.62;101098.66;4976779;28;20049;-73
2022/10/26 05:05:48;;;;;;;28.08;26.05;;;;;;;14.62;64.59;101103.03;4975969;28;20031;-71
2022/10/26 05:08:14;;;;;;;27.65;26.05;;;;;;;14.61;64.28;101104.09;4976082;28;20035;-71
2022/10/26 05:10:40;;;;;;;27.38;25.58;;;;;;;14.62;64.27;101105.75;4975833;28;20035;-71
2022/10/26 05:13:06;;;;;;;26.65;25.00;;;;;;;14.61;64.42;101103.28;4976069;28;20356;-75
2022/10/26 05:15:31;;;;;;;27.63;25.42;;;;;;;14.61;64.71;101104.09;4974947;28;20035;-72
2022/10/26 05:17:59;;;;;;;26.35;24.85;;;;;;;14.61;64.58;101106.00;4958257;28;20034;-73
2022/10/26 05:20:29;;;;;;;27.23;25.63;;;;;;;14.60;64.46;101110.63;4976384;28;20034;-72
2022/10/26 05:22:59;;;;;;;26.88;25.17;;;;;;;14.60;64.57;101102.47;4976390;28;20039;-73
2022/10/26 05:25:26;;;;;;;25.45;23.95;;;;;;;14.59;64.74;101106.28;4975741;28;20066;-74
2022/10/26 05:27:51;;;;;;;26.15;24.65;;;;;;;14.60;64.47;101107.91;4974421;28;20038;-74
2022/10/26 05:30:16;;;;;;;28.00;26.10;;;;;;;14.60;64.42;101107.09;4975987;28;20039;-76
2022/10/26 05:32:42;;;;;;;28.05;25.83;;;;;;;14.59;64.65;101114.44;4975637;28;20038;-73
2022/10/26 05:35:07;;;;;;;26.27;24.67;;;;;;;14.58;64.60;101112.78;4957836;28;20031;-70
2022/10/26 05:37:33;;;;;;;28.25;26.45;;;;;;;14.59;64.77;101111.72;4975068;28;20047;-71
2022/10/26 05:39:58;;;;;;;27.35;25.58;;;;;;;14.59;64.42;101114.44;4975655;28;20038;-73
2022/10/26 05:42:24;;;;;;;26.33;24.83;;;;;;;14.59;64.77;101117.16;4958418;28;20066;-73
2022/10/26 05:44:49;;;;;;;26.63;25.02;;;;;;;14.59;64.45;101114.44;4975370;28;20037;-71
2022/10/26 05:47:15;;;;;;;26.55;24.85;;;;;;;14.60;64.50;101115.25;4975240;28;20395;-75
2022/10/26 05:49:40;;;;;;;29.70;27.50;;;;;;;14.59;64.81;101114.44;4973907;28;20055;-71
2022/10/26 05:52:06;;;;;;;27.13;25.20;;;;;;;14.59;64.55;101119.88;4975322;28;20034;-74
2022/10/26 05:54:31;;;;;;;26.90;25.30;;;;;;;14.58;64.52;101118.22;4974845;28;20031;-74
2022/10/26 05:56:57;;;;;;;26.30;24.63;;;;;;;14.59;64.72;101116.31;4975241;28;20037;-73
2022/10/26 05:59:22;;;;;;;26.10;24.70;;;;;;;14.57;64.64;101122.00;4975553;28;20031;-73
2022/10/26 06:02:03;;;;;;;27.98;26.33;;;;;;;14.58;64.46;101126.38;4973901;28;20038;-73
2022/10/26 06:04:36;;;;;;;28.27;26.58;;;;;;;14.57;64.73;101126.63;4975815;28;20035;-70
2022/10/26 06:07:02;;;;;;;25.83;24.42;;;;;;;14.56;64.44;101123.06;4975568;28;20027;-72
2022/10/26 06:09:28;;;;;;;26.33;24.65;;;;;;;14.56;64.99;101117.63;4973809;28;20038;-72
2022/10/26 06:11:53;;;;;;;27.10;25.50;;;;;;;14.56;64.72;101112.19;4974956;28;20035;-73
2022/10/26 06:14:19;;;;;;;26.17;24.67;;;;;;;14.56;64.63;101111.41;4974980;28;20035;-71
2022/10/26 06:17:03;;;;;;;28.05;26.20;;;;;;;14.55;64.84;101105.13;4974115;28;20046;-72
2022/10/26 06:19:41;;;;;;;26.00;24.23;;;;;;;14.55;64.72;101105.13;4975016;28;20031;-73
2022/10/26 06:22:43;;;;;;;24.05;22.80;;;;;;;14.54;64.91;101103.50;4975303;28;20039;-71
2022/10/26 06:25:13;;;;;;;26.58;24.73;;;;;;;14.53;64.78;101093.69;4974802;28;20085;-71
2022/10/26 06:28:14;;;;;;;26.77;25.15;;;;;;;14.54;64.66;101102.66;4973913;28;20089;-71
2022/10/26 06:30:40;;;;;;;26.77;25.15;;;;;;;14.53;64.93;101112.72;4975754;28;20031;-71
2022/10/26 06:33:11;;;;;;;24.95;23.35;;;;;;;14.52;64.79;101113.78;4975309;28;20112;-74
2022/10/26 06:35:40;;;;;;;25.10;23.15;;;;;;;14.53;64.82;101118.16;4973822;28;20027;-74
2022/10/26 06:38:20;;;;;;;26.15;24.25;;;;;;;14.53;65.00;101120.88;4974044;28;20085;-70
2022/10/26 06:40:50;;;;;;;27.67;25.98;;;;;;;14.52;64.70;101118.41;4974226;28;20038;-71
2022/10/26 06:43:28;;;;;;;25.92;24.23;;;;;;;14.53;64.82;101118.16;4974569;28;20027;-72
2022/10/26 06:46:05;;;;;;;26.58;24.80;;;;;;;14.51;64.73;101114.84;4974630;28;20038;-71
2022/10/26 06:48:42;;;;;;;26.10;24.20;;;;;;;14.52;64.93;101121.13;4976763;28;20065;-71
2022/10/26 06:51:13;;;;;;;25.75;24.25;;;;;;;14.50;65.01;101122.19;4978205;28;20387;-71
2022/10/26 06:54:04;;;;;;;24.80;23.40;;;;;;;14.51;64.98;101125.72;4978453;28;20029;-76
2022/10/26 06:56:30;;;;;;;26.27;24.17;;;;;;;14.50;65.01;101130.34;4978554;28;20035;-72
2022/10/26 06:59:04;;;;;;;28.83;26.67;;;;;;;14.50;65.09;101124.09;4978085;28;20145;-75
2022/10/26 07:01:29;;;;;;;24.80;22.85;;;;;;;14.49;64.86;101128.72;4978313;28;20030;-72
2022/10/26 07:03:55;;;;;;;26.67;25.13;;;;;;;14.50;65.10;101135.78;4977002;28;20505;-71
2022/10/26 07:06:20;;;;;;;24.65;22.67;;;;;;;14.50;64.71;101134.97;4977933;28;20471;-77
2022/10/26 07:08:45;;;;;;;27.77;25.98;;;;;;;14.49;64.96;101133.34;4977874;28;20532;-73
2022/10/26 07:11:11;;;;;;;27.25;25.73;;;;;;;14.49;64.96;101155.09;4976686;28;20540;-73
2022/10/26 07:13:36;;;;;;;26.48;24.90;;;;;;;14.48;65.08;101159.69;4978282;28;20035;-73
2022/10/26 07:16:01;;;;;;;26.05;24.42;;;;;;;14.48;64.81;101154.25;4977924;28;20039;-72
2022/10/26 07:18:27;;;;;;;26.33;24.83;;;;;;;14.50;65.04;101151.28;4976659;28;20042;-74
2022/10/26 07:20:52;;;;;;;27.38;25.67;;;;;;;14.48;64.82;101156.97;4975978;28;20039;-72
2022/10/26 07:23:18;;;;;;;26.85;25.10;;;;;;;14.49;65.07;101155.91;4976919;28;20042;-71
2022/10/26 07:25:43;;;;;;;28.92;27.05;;;;;;;14.49;65.17;101160.53;4976334;28;20026;-72
2022/10/26 07:28:09;;;;;;;24.98;23.58;;;;;;;14.49;65.20;101174.13;4977644;28;20125;-71
2022/10/26 07:30:36;;;;;;;26.23;24.38;;;;;;;14.48;65.05;101180.63;4977230;28;20047;-72
2022/10/26 07:33:11;;;;;;;26.15;24.55;;;;;;;14.48;65.33;101191.50;4977689;28;20376;-71
2022/10/26 07:35:37;;;;;;;27.30;25.63;;;;;;;14.49;65.13;101190.44;4977356;28;20034;-72
2022/10/26 07:38:03;;;;;;;27.27;25.48;;;;;;;14.49;65.34;101185.00;4977153;28;20469;-72
2022/10/26 07:40:29;;;;;;;27.77;25.67;;;;;;;14.47;64.79;101177.09;4977189;28;20042;-72
2022/10/26 07:42:59;;;;;;;28.38;26.55;;;;;;;14.48;64.96;101189.59;4976755;28;20034;-71
2022/10/26 07:45:26;;;;;;;26.73;24.65;;;;;;;14.48;65.32;101184.16;4977348;28;20031;-74
2022/10/26 07:47:51;;;;;;;27.45;25.65;;;;;;;14.48;65.33;101184.16;4976970;28;20035;-72
2022/10/26 07:50:17;;;;;;;27.02;25.40;;;;;;;14.49;64.99;101188.53;4976966;28;20055;-71
2022/10/26 07:52:42;;;;;;;28.45;26.45;;;;;;;14.47;65.24;101201.53;4976783;28;20440;-75
2022/10/26 07:55:10;;;;;;;26.58;25.05;;;;;;;14.48;65.26;101205.06;4977042;28;20526;-71
2022/10/26 07:57:35;;;;;;;28.35;26.60;;;;;;;14.48;65.38;101207.78;4975968;28;20065;-72
2022/10/26 08:00:02;;;;;;;28.13;26.40;;;;;;;14.49;65.49;101209.47;4976627;28;20459;-71
2022/10/26 08:02:28;;;;;;;27.88;25.55;;;;;;;14.48;65.37;101205.88;4976788;28;20031;-71
2022/10/26 08:04:53;;;;;;;26.95;25.35;;;;;;;14.48;65.20;101210.50;4976717;28;20046;-71
2022/10/26 08:07:19;;;;;;;25.92;24.33;;;;;;;14.48;65.57;101208.59;4976656;28;20027;-72
2022/10/26 08:09:44;;;;;;;26.00;24.50;;;;;;;14.48;65.61;101219.47;4976415;28;20472;-73
2022/10/26 08:12:09;;;;;;;25.50;24.00;;;;;;;14.48;65.63;101216.75;4976291;28;20043;-71
2022/10/26 08:14:34;;;;;;;27.08;25.40;;;;;;;14.49;65.56;101215.69;4975320;28;20041;-74
2022/10/26 08:17:00;;;;;;;25.48;23.98;;;;;;;14.49;65.75;101217.59;4976783;28;20022;-72
2022/10/26 08:19:25;;;;;;;26.45;24.83;;;;;;;14.49;65.70;101217.59;4976162;28;20051;-72
2022/10/26 08:21:51;;;;;;;29.00;27.10;;;;;;;14.48;65.35;101224.09;4974586;28;20142;-74
2022/10/26 08:24:16;;;;;;;27.35;25.42;;;;;;;14.49;65.49;101225.75;4975874;28;20067;-71
2022/10/26 08:26:42;;;;;;;27.70;26.08;;;;;;;14.50;65.80;101221.97;4975953;28;20035;-70
2022/10/26 08:29:07;;;;;;;25.73;24.30;;;;;;;14.48;65.40;101219.47;4976219;28;20372;-72
2022/10/26 08:31:33;;;;;;;24.88;23.15;;;;;;;14.49;65.71;101220.31;4976141;28;20118;-73
2022/10/26 08:33:58;;;;;;;25.95;24.45;;;;;;;14.48;65.65;101213.22;4976499;28;20030;-70
2022/10/26 08:36:26;;;;;;;27.60;25.80;;;;;;;14.49;65.30;101217.59;4976078;28;20058;-71
2022/10/26 08:38:51;;;;;;;27.40;25.65;;;;;;;14.50;65.65;101211.91;4976351;28;20041;-71
2022/10/26 08:41:51;;;;;;;26.73;25.02;;;;;;;14.52;66.05;101208.13;4975978;28;20118;-70
2022/10/26 08:44:25;;;;;;;28.50;26.50;;;;;;;14.51;66.02;101207.28;4960334;28;20049;-71
2022/10/26 08:46:58;;;;;;;27.70;26.00;;;;;;;14.52;66.17;101211.66;4976131;28;20476;-71
2022/10/26 08:49:31;;;;;;;25.05;23.67;;;;;;;14.53;65.67;101217.91;4975863;28;20051;-71
2022/10/26 08:52:00;;;;;;;26.60;24.83;;;;;;;14.53;66.10;101209.75;4976209;28;20089;-71
2022/10/26 08:54:37;;;;;;;26.10;23.95;;;;;;;14.55;66.03;101223.94;4975983;28;20034;-72
2022/10/26 08:57:25;;;;;;;26.63;24.88;;;;;;;14.55;66.15;101226.66;4975821;28;20031;-73
2022/10/26 09:00:01;;;;;;;24.63;23.27;;;;;;;14.55;65.81;101229.38;4974377;28;20022;-71
2022/10/26 09:02:26;;;;;;;25.35;23.85;;;;;;;14.55;65.82;101238.34;4975944;28;20492;-71
2022/10/26 09:04:53;;;;;;;26.60;25.02;;;;;;;14.57;65.84;101247.06;4975724;28;20065;-71
2022/10/26 09:08:06;;;;;;;28.80;26.90;;;;;;;14.58;66.07;101264.19;4975518;28;20030;-71
2022/10/26 09:10:39;;;;;;;25.67;24.25;;;;;;;14.58;66.17;101266.91;4915704;29;20032;-71
2022/10/26 09:13:32;;;;;;;27.27;25.08;;;;;;;14.58;66.25;101267.72;4916097;29;20044;-72
2022/10/26 09:16:00;;;;;;;25.58;23.95;;;;;;;14.60;65.83;101276.47;4962034;28;20050;-72
2022/10/26 09:18:54;;;;;;;26.00;24.60;;;;;;;14.61;66.30;101278.09;4974751;28;20035;-72
2022/10/26 09:21:49;;;;;;;27.73;26.00;;;;;;;14.63;66.49;101294.97;4975597;28;20035;-71
2022/10/26 09:24:27;;;;;;;27.02;25.00;;;;;;;14.65;66.47;101284.66;4974648;28;20081;-71
2022/10/26 09:26:53;;;;;;;25.83;24.17;;;;;;;14.65;66.50;101290.09;4975417;28;20074;-69
2022/10/26 09:29:22;;;;;;;26.50;24.45;;;;;;;14.67;67.06;101284.41;4975224;28;20031;-71
2022/10/26 09:31:52;;;;;;;27.95;26.15;;;;;;;14.69;66.95;101287.69;4973871;28;20427;-71
2022/10/26 09:34:30;;;;;;;25.33;23.80;;;;;;;14.70;67.14;101283.91;4975574;28;20118;-71
2022/10/26 09:36:55;;;;;;;29.50;27.05;;;;;;;14.71;67.05;101289.06;4975241;28;20027;-71
2022/10/26 09:39:30;;;;;;;29.35;27.23;;;;;;;14.73;66.95;101290.72;4975056;28;20038;-70
2022/10/26 09:42:00;;;;;;;27.88;26.08;;;;;;;14.76;67.55;101291.00;4974926;28;20031;-70
2022/10/26 09:44:42;;;;;;;26.80;25.10;;;;;;;14.77;67.85;101287.22;4975099;28;20093;-71
2022/10/26 09:47:27;;;;;;;27.13;25.60;;;;;;;14.79;67.50;101308.72;4974706;28;20042;-71
2022/10/26 09:49:57;;;;;;;26.75;24.95;;;;;;;14.79;67.91;101304.13;4974716;28;20055;-71
2022/10/26 09:52:23;;;;;;;29.55;27.45;;;;;;;14.80;67.59;101302.22;4974307;28;20180;-71
2022/10/26 09:54:48;;;;;;;27.90;26.15;;;;;;;14.81;67.64;101304.66;4974485;28;20449;-71
2022/10/26 09:57:17;;;;;;;27.52;25.83;;;;;;;14.84;67.54;101319.66;4974677;28;20150;-71
2022/10/26 09:59:46;;;;;;;25.42;23.95;;;;;;;14.85;67.45;101311.25;4974804;28;20034;-71
2022/10/26 10:02:43;;;;;;;27.20;25.05;;;;;;;14.88;67.67;101318.06;4974275;28;20089;-72
2022/10/26 10:05:32;;;;;;;27.75;26.15;;;;;;;14.89;67.83;101338.72;4974874;28;20019;-71
2022/10/26 10:08:14;;;;;;;27.40;25.73;;;;;;;14.91;68.02;101339.31;4974506;28;20349;-71
2022/10/26 10:10:57;;;;;;;28.33;26.30;;;;;;;14.92;67.72;101338.25;4973489;28;20112;-70
2022/10/26 10:13:24;;;;;;;26.45;24.95;;;;;;;14.95;67.38;101348.59;4974453;28;20440;-70
2022/10/26 10:16:23;;;;;;;25.75;24.33;;;;;;;14.97;67.80;101351.91;4974321;28;20030;-72
2022/10/26 10:18:57;;;;;;;26.95;25.48;;;;;;;15.00;67.56;101353.28;4971186;28;20038;-72
2022/10/26 10:21:38;;;;;;;27.58;25.85;;;;;;;15.00;67.96;101356.81;4973913;28;20031;-72
2022/10/26 10:24:31;;;;;;;29.20;27.55;;;;;;;15.04;67.74;101365.28;4974221;28;20106;-70
2022/10/26 10:26:58;;;;;;;31.42;29.40;;;;;;;15.05;67.63;101372.38;4974182;28;20031;-71
2022/10/26 10:29:43;;;;;;;27.98;26.38;;;;;;;15.07;67.91;101368.31;4974112;28;20030;-72
2022/10/26 10:32:35;;;;;;;28.25;26.48;;;;;;;15.10;67.84;101378.69;4974042;28;20030;-73
2022/10/26 10:35:00;;;;;;;28.60;26.85;;;;;;;15.11;67.93;101388.47;4970265;28;20042;-70
2022/10/26 10:37:29;;;;;;;28.45;26.75;;;;;;;15.14;68.01;101393.41;4974555;28;20444;-71
2022/10/26 10:40:00;;;;;;;28.52;26.63;;;;;;;15.18;68.16;101406.50;4974063;28;20041;-73
2022/10/26 10:42:32;;;;;;;29.33;27.63;;;;;;;15.20;68.25;101404.34;4974136;28;20034;-71
2022/10/26 10:44:59;;;;;;;28.52;26.95;;;;;;;15.21;68.40;101406.81;4974238;28;20030;-69
2022/10/26 10:47:35;;;;;;;28.48;26.42;;;;;;;15.23;68.43;101412.81;4973871;28;20042;-70
2022/10/26 10:50:03;;;;;;;31.88;29.63;;;;;;;15.26;68.25;101414.19;4974325;28;20055;-70
2022/10/26 10:52:34;;;;;;;28.95;26.85;;;;;;;15.29;68.48;101414.50;4973008;28;20122;-69
2022/10/26 10:55:14;;;;;;;29.38;27.35;;;;;;;15.32;69.12;101414.00;4974074;28;20122;-70
2022/10/26 10:58:05;;;;;;;31.55;29.45;;;;;;;15.33;69.16;101414.81;4974256;28;20058;-74
2022/10/26 11:00:36;;;;;;;29.30;27.40;;;;;;;15.35;68.80;101423.56;4974592;28;20046;-70
2022/10/26 11:03:16;;;;;;;30.63;28.80;;;;;;;15.37;68.81;101426.81;4974292;28;20035;-70
2022/10/26 11:06:20;;;;;;;28.65;26.70;;;;;;;15.40;68.46;101437.22;4972897;28;20038;-70
2022/10/26 11:08:51;;;;;;;30.88;28.25;;;;;;;15.42;68.54;101435.06;4970833;28;20050;-71
2022/10/26 11:11:16;;;;;;;30.02;27.85;;;;;;;15.46;68.61;101430.72;4973373;28;20126;-70
2022/10/26 11:13:52;;;;;;;30.17;28.17;;;;;;;15.49;69.12;101432.09;4973795;28;20534;-71
2022/10/26 11:16:29;;;;;;;31.25;29.15;;;;;;;15.51;69.04;101433.50;4973942;28;20030;-71
2022/10/26 11:18:55;;;;;;;30.73;28.17;;;;;;;15.54;68.94;101426.69;4974173;28;20501;-70
2022/10/26 11:21:29;;;;;;;30.77;28.98;;;;;;;15.58;69.11;101427.84;4973740;28;20058;-70
2022/10/26 11:23:54;;;;;;;30.33;28.23;;;;;;;15.61;69.72;101429.22;4974013;28;20038;-70
2022/10/26 11:26:34;;;;;;;31.08;28.88;;;;;;;15.63;69.99;101429.78;4973758;28;20031;-70